Airfield :
LOGIN :

Register | Disclaimer

   EN    FR    IT 

 










Legend :    VFR   Marginal VFR   IFR   Intensive IFR   Very Intensive IFR
Visi :
Ceiling :
>= 8 km
>= 3000ft
5 to 8 km
1000 to 3000 ft
1500m to 5 km
500 to 1000 ft
800 to 1500m
200 to 500 ft
< 800m
< 200 ft
Symbols :   Thunderstorms  Fog  Heavy snow  Heavy precipitations  Wind > 20 kt
SIGMETs :     Misc.  Thunderstorms  Icing  Turbulence  Mountain Waves  Volcanic Ashes







- Airport Elevation : 16 ft
- IATA code : LPX


EVLA - Liepaja

CURRENT METAR :
  • 151250Z AUTO 28007KT 240V310 9999 BKN015/// BKN022/// 20/18 Q1011

EXPIRED METARs :
  • 151220Z AUTO 30008KT 270V330 9999 FEW014/// SCT017/// 20/17 Q1011
  • 151150Z AUTO 31009KT 290V350 9999 BKN016/// 21/17 Q1010
  • 151120Z AUTO 30008KT 270V330 9999 SCT017/// BKN021/// 21/17 Q1010
  • 151050Z AUTO 30008KT 9999 BKN015/// BKN018/// 21/17 Q1009
  • 151020Z AUTO 30008KT 270V330 9999 FEW014/// BKN016/// 21/17 Q1009

TAF TAF EVLA
Valid from the 15 at 12:00 until the 16 at 12:00 UTC


151109Z 1512/1612 31007KT 9999 BKN020
TEMPO 1512/1515 4000 -TSRA BKN012CB
BECMG 1523/1601 24007KT
No reported NOTAMs for that airfield.



MET'MAP, your aeronautical weather chart ! - Copyright ORBIFLY December 2007 - Disclaimer

ORBIFLY MET'MAP TEAM :

Programming & Development : Alexandra Zaïnal
Concept & Development : Baudouin d'Aumeries
Co-Development & Prog : Marc-Olivier Méhu
Technical & hardware support : Manuel Goepfert

Contact : metmap@orbifly.com




SOURCES & CREDITS :

   NOAA